Time;durP1;ratioP1;P1;durP2;ratioP2;P2;SDS_P1;SDS_P2;PMS_P1;PMS_P2;Temp;Humidity;BMP_temperature;BMP_pressure;BME280_temperature;BME280_humidity;BME280_pressure;Samples;Min_cycle;Max_cycle;Signal;HPM_P1;HPM_P2
2023/08/16 00:02:24;;;;;;;1.00;1.00;;;;;;;23.45;75.96;96914.22;4965084;28;20424;-61
2023/08/16 00:04:50;;;;;;;0.90;0.90;;;;;;;23.44;75.67;96904.94;4965809;28;20145;-62
2023/08/16 00:07:17;;;;;;;1.00;1.00;;;;;;;23.40;76.16;96926.13;4966188;28;20061;-61
2023/08/16 00:09:44;;;;;;;1.00;1.00;;;;;;;23.30;76.65;96936.56;4966385;28;20082;-61
2023/08/16 00:12:10;;;;;;;1.00;1.00;;;;;;;23.25;77.44;96931.47;4979759;28;20556;-61
2023/08/16 00:14:37;;;;;;;0.90;0.90;;;;;;;23.15;77.61;96918.47;4983617;28;20051;-61
2023/08/16 00:17:04;;;;;;;1.00;1.00;;;;;;;23.06;77.85;96920.44;4985127;28;20076;-61
2023/08/16 00:19:30;;;;;;;0.90;0.90;;;;;;;22.82;79.36;96928.50;4985633;28;20090;-61
2023/08/16 00:21:57;;;;;;;0.90;0.90;;;;;;;22.80;79.60;96930.97;4983627;28;20509;-60
2023/08/16 00:24:24;;;;;;;1.00;1.00;;;;;;;22.68;80.11;96923.31;4983954;28;20595;-61
2023/08/16 00:26:51;;;;;;;1.00;1.00;;;;;;;22.73;79.88;96925.53;4984610;28;20042;-60
2023/08/16 00:29:17;;;;;;;0.98;0.98;;;;;;;22.71;80.10;96927.25;4985105;28;20065;-60
2023/08/16 00:31:44;;;;;;;1.00;1.00;;;;;;;22.66;80.84;96919.34;4983534;28;20070;-60
2023/08/16 00:34:11;;;;;;;0.90;0.90;;;;;;;22.71;80.47;96918.78;4985187;28;20058;-63
2023/08/16 00:36:37;;;;;;;0.90;0.90;;;;;;;22.75;79.90;96916.59;4983121;28;20165;-61
2023/08/16 00:39:04;;;;;;;0.82;0.82;;;;;;;20.41;79.99;96548.53;4984790;28;20054;-62
2023/08/16 00:41:31;;;;;;;1.00;1.00;;;;;;;22.79;79.37;96918.09;4985159;28;20778;-61
2023/08/16 00:43:57;;;;;;;1.08;1.08;;;;;;;22.73;79.12;96900.13;4985228;28;20050;-61
2023/08/16 00:46:24;;;;;;;1.00;1.00;;;;;;;22.82;79.00;96927.69;4984654;28;20587;-62
2023/08/16 00:48:53;;;;;;;0.98;0.98;;;;;;;22.83;79.32;96929.25;4985190;28;20086;-60
2023/08/16 00:51:20;;;;;;;0.90;0.90;;;;;;;22.78;79.18;96921.38;4983504;28;20252;-61
2023/08/16 00:53:48;;;;;;;1.00;1.00;;;;;;;22.80;78.61;96924.53;4982752;28;20060;-62
2023/08/16 00:56:16;;;;;;;0.95;0.95;;;;;;;22.85;78.75;96926.78;4984480;28;20062;-62
2023/08/16 00:58:43;;;;;;;1.05;1.05;;;;;;;22.91;78.20;96922.94;4984878;28;20203;-60
2023/08/16 01:01:10;;;;;;;1.00;1.00;;;;;;;22.79;78.64;96934.25;4985020;28;20509;-61
2023/08/16 01:03:37;;;;;;;1.00;1.00;;;;;;;22.87;78.04;96935.59;4983384;28;20525;-62
2023/08/16 01:06:04;;;;;;;1.00;1.00;;;;;;;22.85;78.23;96940.91;4984749;28;20716;-60
2023/08/16 01:08:32;;;;;;;0.90;0.90;;;;;;;22.84;77.96;96953.47;4984143;28;20529;-60
2023/08/16 01:11:22;;;;;;;0.90;0.90;;;;;;;22.56;78.78;96931.78;4982322;28;20078;-60
2023/08/16 01:13:58;;;;;;;0.88;0.88;;;;;;;22.74;78.74;96948.94;4983565;28;20133;-60
2023/08/16 01:16:27;;;;;;;1.00;1.00;;;;;;;22.66;79.04;96953.22;4984186;28;20137;-61
2023/08/16 01:18:56;;;;;;;0.98;0.98;;;;;;;22.64;79.18;96950.06;4984313;28;20541;-62
2023/08/16 01:21:23;;;;;;;0.90;0.90;;;;;;;22.29;79.75;96913.22;4983791;28;20140;-63
2023/08/16 01:23:57;;;;;;;0.90;0.90;;;;;;;22.66;78.99;96953.22;4982542;28;20055;-60
2023/08/16 01:26:30;;;;;;;0.90;0.90;;;;;;;;;;4983409;28;20042;-63
2023/08/16 01:28:58;;;;;;;0.85;0.85;;;;;;;22.61;79.56;96953.78;4983594;28;20158;-61
2023/08/16 01:31:26;;;;;;;1.00;1.00;;;;;;;22.58;79.39;96957.50;4993310;28;20662;-59
2023/08/16 01:33:52;;;;;;;0.90;0.90;;;;;;;22.66;79.03;96953.22;4988813;28;20430;-61
2023/08/16 01:36:20;;;;;;;0.90;0.90;;;;;;;22.58;79.01;96946.22;4983054;28;20864;-59
2023/08/16 01:38:46;;;;;;;0.90;0.90;;;;;;;22.68;78.83;96948.72;4983126;28;20741;-59
2023/08/16 01:41:22;;;;;;;0.80;0.80;;;;;;;22.68;79.18;96939.44;4983521;28;20077;-59
2023/08/16 01:43:49;;;;;;;0.90;0.90;;;;;;;22.32;79.37;96912.31;4983808;28;20051;-61
2023/08/16 01:46:16;;;;;;;1.00;1.00;;;;;;;22.53;79.72;96963.72;4983365;28;20129;-60
2023/08/16 01:48:45;;;;;;;0.80;0.80;;;;;;;22.48;79.86;96960.19;4983596;28;20117;-60
2023/08/16 01:51:11;;;;;;;0.80;0.80;;;;;;;22.39;80.33;96960.09;4983241;28;20597;-61
2023/08/16 01:53:38;;;;;;;0.90;0.90;;;;;;;22.36;80.28;96961.00;4981523;28;20445;-60
2023/08/16 01:56:05;;;;;;;0.90;0.90;;;;;;;21.74;81.67;96916.47;4982705;28;20069;-60
2023/08/16 01:58:32;;;;;;;0.90;0.90;;;;;;;22.13;81.59;96966.13;4982753;28;20042;-60
2023/08/16 02:00:59;;;;;;;0.80;0.80;;;;;;;22.14;81.84;96957.22;4983391;28;20166;-60
2023/08/16 02:03:26;;;;;;;0.80;0.80;;;;;;;21.75;81.86;96905.97;4981347;28;20122;-60
2023/08/16 02:05:52;;;;;;;0.90;0.90;;;;;;;21.99;81.73;96930.66;4981665;28;20109;-60
2023/08/16 02:08:19;;;;;;;0.90;0.90;;;;;;;22.06;81.64;96955.84;4981095;28;20061;-60
2023/08/16 02:10:46;;;;;;;1.00;1.00;;;;;;;21.99;82.26;96947.59;4982518;28;20057;-61
2023/08/16 02:13:13;;;;;;;0.90;0.90;;;;;;;21.94;82.53;96947.34;4982460;28;20154;-61
2023/08/16 02:15:39;;;;;;;0.90;0.90;;;;;;;21.84;82.98;96943.59;4982468;28;20424;-60
2023/08/16 02:18:10;;;;;;;0.90;0.90;;;;;;;21.78;83.67;96945.38;4980796;28;20553;-60
2023/08/16 02:20:40;;;;;;;0.90;0.90;;;;;;;21.73;83.96;96943.09;4982525;28;20054;-60
2023/08/16 02:23:08;;;;;;;0.75;0.75;;;;;;;21.59;84.70;96937.06;4981308;28;20058;-61
2023/08/16 02:25:35;;;;;;;0.90;0.90;;;;;;;21.55;85.38;96937.16;4982668;28;20066;-62
2023/08/16 02:28:02;;;;;;;0.93;0.93;;;;;;;21.29;84.55;96895.22;4982988;28;20050;-60
2023/08/16 02:30:28;;;;;;;0.77;0.77;;;;;;;21.64;84.98;96945.75;4982450;28;20057;-60
2023/08/16 02:32:56;;;;;;;0.90;0.90;;;;;;;21.42;84.56;96905.28;4980404;28;20054;-61
2023/08/16 02:35:23;;;;;;;0.88;0.88;;;;;;;21.65;84.58;96952.97;4981677;28;20268;-60
2023/08/16 02:37:50;;;;;;;0.80;0.80;;;;;;;21.39;84.19;96900.53;4981050;28;20058;-60
2023/08/16 02:40:16;;;;;;;0.80;0.80;;;;;;;21.61;84.23;96937.41;4981234;28;20733;-60
2023/08/16 02:42:45;;;;;;;0.85;0.85;;;;;;;21.53;85.20;96933.97;4975304;28;20154;-60
2023/08/16 02:45:12;;;;;;;0.80;0.80;;;;;;;21.50;85.19;96923.59;4962743;28;21302;-60
2023/08/16 02:47:38;;;;;;;0.88;0.88;;;;;;;21.55;84.85;96937.16;4962763;28;20058;-60
2023/08/16 02:50:06;;;;;;;0.85;0.85;;;;;;;21.44;84.51;96931.00;4962676;28;20050;-61
2023/08/16 02:52:33;;;;;;;0.90;0.90;;;;;;;21.22;84.59;96898.22;4962581;28;20517;-60
2023/08/16 02:54:59;;;;;;;0.90;0.90;;;;;;;21.49;85.00;96943.75;4962651;28;20545;-60
2023/08/16 02:57:26;;;;;;;0.80;0.80;;;;;;;21.48;84.83;96942.19;4963087;28;20058;-63
2023/08/16 02:59:53;;;;;;;0.90;0.90;;;;;;;21.43;85.25;96937.91;4963782;28;20058;-60
2023/08/16 03:02:20;;;;;;;0.80;0.80;;;;;;;21.37;85.28;96942.47;4963630;28;20047;-61
2023/08/16 03:04:47;;;;;;;0.80;0.80;;;;;;;21.36;85.56;96938.06;4963107;28;20051;-60
2023/08/16 03:07:13;;;;;;;1.00;1.00;;;;;;;21.40;85.17;96930.31;4962572;28;20546;-61
2023/08/16 03:09:40;;;;;;;0.85;0.85;;;;;;;21.06;85.48;96892.59;4960918;28;20046;-63
2023/08/16 03:12:07;;;;;;;0.98;0.98;;;;;;;21.12;85.33;96897.25;4971886;28;20054;-62
2023/08/16 03:14:34;;;;;;;0.80;0.80;;;;;;;21.36;86.02;96923.97;4968518;28;20565;-61
2023/08/16 03:17:00;;;;;;;0.80;0.80;;;;;;;21.38;85.49;96927.16;4962416;28;20143;-61
2023/08/16 03:19:27;;;;;;;1.00;1.00;;;;;;;21.26;85.56;96907.38;4963157;28;20062;-63
2023/08/16 03:21:56;;;;;;;0.80;0.80;;;;;;;21.32;85.38;96926.13;4962291;28;20046;-61
2023/08/16 03:24:23;;;;;;;0.80;0.80;;;;;;;21.33;85.25;96919.22;4962860;28;20073;-62
2023/08/16 03:26:50;;;;;;;0.88;0.88;;;;;;;21.21;86.11;96928.44;4962101;28;20130;-61
2023/08/16 03:29:18;;;;;;;0.90;0.90;;;;;;;21.36;84.94;96926.78;4962346;28;20430;-61
2023/08/16 03:31:48;;;;;;;0.80;0.80;;;;;;;21.31;85.35;96921.69;4999706;28;20057;-62
2023/08/16 03:34:16;;;;;;;0.82;0.82;;;;;;;21.28;85.21;96922.59;4980373;28;20058;-61
2023/08/16 03:36:42;;;;;;;0.80;0.80;;;;;;;21.02;85.86;96903.97;4981669;28;20046;-62
2023/08/16 03:39:10;;;;;;;0.80;0.80;;;;;;;21.19;85.81;96936.53;4981554;28;20056;-61
2023/08/16 03:41:37;;;;;;;0.85;0.85;;;;;;;21.20;85.58;96926.81;4981704;28;20432;-62
2023/08/16 03:44:06;;;;;;;0.80;0.80;;;;;;;21.17;85.86;96927.72;4967893;28;20057;-62
2023/08/16 03:46:36;;;;;;;0.75;0.75;;;;;;;21.20;85.88;96937.31;4979661;28;20050;-62
2023/08/16 03:49:03;;;;;;;0.80;0.80;;;;;;;20.55;85.51;96835.97;4979024;28;20056;-61
2023/08/16 03:51:30;;;;;;;0.80;0.80;;;;;;;21.19;85.94;96947.00;4981557;28;20448;-61
2023/08/16 03:53:57;;;;;;;1.00;1.00;;;;;;;21.27;85.24;96932.28;4979538;28;20142;-61
2023/08/16 03:56:24;;;;;;;0.80;0.80;;;;;;;21.30;84.86;96934.22;4979181;28;20054;-62
2023/08/16 03:58:50;;;;;;;0.80;0.80;;;;;;;21.28;84.99;96933.06;4981375;28;20061;-61
2023/08/16 04:01:17;;;;;;;0.90;0.90;;;;;;;21.38;84.77;96944.06;4981893;28;20061;-61
2023/08/16 04:03:45;;;;;;;0.88;0.88;;;;;;;21.41;83.91;96948.81;4983375;28;20054;-62
2023/08/16 04:06:12;;;;;;;0.90;0.90;;;;;;;21.37;84.52;96939.66;4984744;28;20062;-61
2023/08/16 04:08:39;;;;;;;0.80;0.80;;;;;;;21.35;84.72;96944.97;4984763;28;20054;-61
2023/08/16 04:11:07;;;;;;;0.80;0.80;;;;;;;21.41;84.39;96954.44;4984349;28;20050;-62
2023/08/16 04:13:33;;;;;;;0.80;0.80;;;;;;;21.55;83.75;96954.06;4982802;28;20058;-61
2023/08/16 04:16:00;;;;;;;0.90;0.90;;;;;;;21.67;83.34;96956.13;4984030;28;20741;-61
2023/08/16 04:18:28;;;;;;;0.85;0.85;;;;;;;21.71;82.87;96954.00;4983992;28;20520;-61
2023/08/16 04:20:56;;;;;;;0.80;0.80;;;;;;;21.52;82.54;96901.38;4984348;28;20054;-61
2023/08/16 04:23:23;;;;;;;0.90;0.90;;;;;;;21.84;82.18;96954.88;4984266;28;20085;-61
2023/08/16 04:25:50;;;;;;;0.88;0.88;;;;;;;21.75;81.83;96934.97;4984441;28;20056;-62
2023/08/16 04:28:17;;;;;;;0.90;0.90;;;;;;;21.77;81.48;96921.25;4984108;28;20056;-62
2023/08/16 04:30:44;;;;;;;0.90;0.90;;;;;;;22.16;80.82;96971.66;4982577;28;20445;-62
2023/08/16 04:33:10;;;;;;;0.90;0.90;;;;;;;22.21;80.50;96962.66;4983901;28;20626;-62
2023/08/16 04:35:37;;;;;;;0.80;0.80;;;;;;;22.29;79.94;96969.66;4983902;28;20433;-61
2023/08/16 04:38:04;;;;;;;0.90;0.90;;;;;;;22.36;79.32;96952.53;4984083;28;20058;-62
2023/08/16 04:40:31;;;;;;;0.90;0.90;;;;;;;22.35;78.60;96931.16;4983576;28;20153;-63
2023/08/16 04:42:57;;;;;;;0.90;0.90;;;;;;;22.76;78.13;96969.06;4983858;28;20061;-61
2023/08/16 04:45:24;;;;;;;0.95;0.95;;;;;;;22.89;76.92;96956.50;4982952;28;20077;-61
2023/08/16 04:47:51;;;;;;;1.00;1.00;;;;;;;22.95;76.68;96965.97;4983441;28;20054;-61
2023/08/16 04:50:18;;;;;;;1.00;1.00;;;;;;;23.19;75.99;96970.00;4983143;28;20058;-61
2023/08/16 04:52:44;;;;;;;0.90;0.90;;;;;;;23.17;75.48;96971.72;4983016;28;20051;-62
2023/08/16 04:55:11;;;;;;;0.90;0.90;;;;;;;23.25;75.80;96973.88;4981437;28;20070;-61
2023/08/16 04:57:38;;;;;;;1.00;1.00;;;;;;;23.42;74.79;96971.69;4982216;28;20056;-63
2023/08/16 05:00:07;;;;;;;0.98;0.98;;;;;;;23.61;73.65;96973.44;4982003;28;20055;-62
2023/08/16 05:02:34;;;;;;;1.02;1.02;;;;;;;23.74;72.75;96972.13;4981960;28;20525;-61
2023/08/16 05:05:00;;;;;;;1.00;1.00;;;;;;;23.81;72.56;96965.44;4982647;28;20418;-60
2023/08/16 05:07:27;;;;;;;0.90;0.90;;;;;;;23.90;72.35;96974.00;4969492;28;20502;-61
2023/08/16 05:09:54;;;;;;;1.00;1.00;;;;;;;23.98;72.45;96969.69;4962586;28;20059;-62
2023/08/16 05:12:20;;;;;;;1.00;1.00;;;;;;;24.09;72.04;96972.91;4977759;28;20061;-62
2023/08/16 05:14:47;;;;;;;1.00;1.00;;;;;;;24.28;71.83;96963.28;4981535;28;20525;-62
2023/08/16 05:17:14;;;;;;;1.02;1.02;;;;;;;24.47;70.30;96967.03;4983367;28;20058;-62
2023/08/16 05:19:40;;;;;;;1.20;1.20;;;;;;;24.53;70.37;96960.28;4984294;28;20057;-61
2023/08/16 05:22:07;;;;;;;1.08;1.08;;;;;;;24.70;70.06;96970.19;4984316;28;20062;-61
2023/08/16 05:24:34;;;;;;;1.13;1.13;;;;;;;24.84;69.44;96961.09;4983946;28;20046;-62
2023/08/16 05:27:00;;;;;;;1.15;1.15;;;;;;;24.89;68.92;96954.81;4983982;28;20512;-64
2023/08/16 05:29:27;;;;;;;1.20;1.20;;;;;;;25.16;67.78;96969.09;4983352;28;20082;-61
2023/08/16 05:31:57;;;;;;;1.08;1.08;;;;;;;25.16;68.00;96956.94;4983919;28;20542;-62
2023/08/16 05:34:24;;;;;;;1.40;1.40;;;;;;;25.32;66.98;96963.13;4982401;28;20050;-61
2023/08/16 05:36:50;;;;;;;1.15;1.15;;;;;;;25.49;66.15;96960.03;4982194;28;20050;-62
2023/08/16 05:39:17;;;;;;;1.00;1.00;;;;;;;25.43;65.99;96968.38;4982055;28;20042;-62
2023/08/16 05:41:44;;;;;;;1.48;1.48;;;;;;;25.11;68.05;96971.75;4983329;28;20465;-62
2023/08/16 05:44:10;;;;;;;1.20;1.20;;;;;;;25.45;67.52;96963.00;4981685;28;20050;-62
2023/08/16 05:48:34;;;;;;;1.20;1.20;;;;;;;25.81;65.55;96962.28;5059562;27;1360293;-59
2023/08/16 05:51:01;;;;;;;1.35;1.35;;;;;;;25.87;64.42;96954.69;5080604;28;20048;-60
2023/08/16 05:53:28;;;;;;;1.45;1.45;;;;;;;26.15;63.19;96953.44;5078192;28;20052;-59
2023/08/16 05:55:55;;;;;;;1.40;1.40;;;;;;;26.33;63.08;96959.09;5076943;28;20437;-63
2023/08/16 05:58:21;;;;;;;1.40;1.40;;;;;;;26.53;61.60;96963.00;5091958;28;20069;-65
2023/08/16 06:00:48;;;;;;;1.48;1.48;;;;;;;26.70;60.31;96957.75;5078028;28;20769;-68
2023/08/16 06:03:15;;;;;;;1.50;1.50;;;;;;;26.82;60.19;96956.78;5077619;28;20056;-64
2023/08/16 06:05:43;;;;;;;1.25;1.25;;;;;;;26.63;59.70;96912.59;5077259;28;20648;-61
2023/08/16 06:08:09;;;;;;;1.23;1.23;;;;;;;26.83;59.38;96952.66;5077749;28;20052;-61
2023/08/16 06:10:36;;;;;;;1.60;1.60;;;;;;;27.00;60.57;96950.22;5078796;28;20052;-65
2023/08/16 06:13:03;;;;;;;1.65;1.65;;;;;;;26.92;60.55;96937.63;5075617;28;20051;-61
2023/08/16 06:15:29;;;;;;;1.35;1.35;;;;;;;27.20;60.63;96942.69;5075166;28;20052;-65
2023/08/16 06:17:56;;;;;;;1.40;1.40;;;;;;;27.09;60.43;96919.69;5075301;28;20079;-65
2023/08/16 06:20:23;;;;;;;1.50;1.50;;;;;;;27.63;60.63;96953.47;5076687;28;20523;-62
2023/08/16 06:22:49;;;;;;;1.60;1.60;;;;;;;27.43;60.48;96887.84;5076783;28;20143;-66
2023/08/16 06:25:16;;;;;;;1.40;1.40;;;;;;;27.56;58.60;96851.41;5076557;28;20428;-62
2023/08/16 06:27:43;;;;;;;1.55;1.55;;;;;;;27.81;57.47;96859.38;5074796;28;20066;-66
2023/08/16 06:30:10;;;;;;;1.75;1.75;;;;;;;28.07;58.15;96903.13;5076802;28;20056;-66
2023/08/16 06:32:37;;;;;;;1.83;1.83;;;;;;;28.67;57.01;96948.28;5076349;28;20052;-61
2023/08/16 06:35:05;;;;;;;1.38;1.38;;;;;;;28.62;56.98;96933.94;5075360;28;20151;-62
2023/08/16 06:37:31;;;;;;;1.50;1.50;;;;;;;28.17;55.37;96856.19;5075759;28;20051;-65
2023/08/16 06:39:58;;;;;;;1.63;1.63;;;;;;;28.31;55.26;96854.63;5076635;28;20056;-65
2023/08/16 06:42:25;;;;;;;1.70;1.70;;;;;;;28.97;55.53;96957.59;5074699;28;20079;-62
2023/08/16 06:44:52;;;;;;;1.77;1.77;;;;;;;29.04;53.97;96942.91;5076911;28;20407;-63
2023/08/16 06:47:18;;;;;;;1.60;1.60;;;;;;;29.30;53.86;96952.44;5074347;28;20319;-63
2023/08/16 06:49:46;;;;;;;1.55;1.55;;;;;;;29.37;53.82;96960.59;5079318;28;20052;-60
2023/08/16 06:52:12;;;;;;;1.83;1.83;;;;;;;29.11;54.13;96933.97;5076011;28;20134;-59
2023/08/16 06:54:41;;;;;;;1.60;1.60;;;;;;;28.32;54.60;96861.09;5073594;28;20052;-67
2023/08/16 06:57:08;;;;;;;1.58;1.58;;;;;;;29.14;54.58;96972.94;5081655;28;20050;-62
2023/08/16 06:59:36;;;;;;;1.83;1.83;;;;;;;28.82;55.15;96942.56;5085355;28;20548;-61
2023/08/16 07:02:04;;;;;;;1.80;1.80;;;;;;;28.67;55.36;96934.03;5070000;28;20459;-62
2023/08/16 07:04:33;;;;;;;1.70;1.70;;;;;;;27.60;58.57;96977.22;5062933;28;20045;-63
2023/08/16 07:07:00;;;;;;;1.65;1.65;;;;;;;27.87;58.74;96967.69;5064200;28;20071;-62
2023/08/16 07:09:27;;;;;;;1.63;1.63;;;;;;;27.77;59.39;96969.81;5067045;28;20483;-59
2023/08/16 07:11:54;;;;;;;1.55;1.55;;;;;;;28.09;58.52;96968.97;5065190;28;20137;-58
2023/08/16 07:14:20;;;;;;;1.40;1.40;;;;;;;27.68;58.50;96893.03;5068626;28;20644;-62
2023/08/16 07:16:47;;;;;;;1.70;1.70;;;;;;;28.55;57.61;96962.84;5076215;28;20049;-59
2023/08/16 07:19:14;;;;;;;1.70;1.70;;;;;;;28.71;57.02;96962.34;5060863;28;20476;-64
2023/08/16 07:21:41;;;;;;;1.58;1.58;;;;;;;28.89;56.04;96967.84;5061050;28;20052;-63
2023/08/16 07:24:07;;;;;;;1.70;1.70;;;;;;;28.57;56.87;96957.44;5056868;28;20052;-60
2023/08/16 07:26:34;;;;;;;1.60;1.60;;;;;;;27.82;58.88;96934.97;5063981;28;20060;-64
2023/08/16 07:29:01;;;;;;;1.60;1.60;;;;;;;28.21;59.35;96963.47;5063467;28;20109;-60
2023/08/16 07:31:27;;;;;;;1.60;1.60;;;;;;;28.79;57.87;96963.50;5061997;28;20509;-60
2023/08/16 07:33:54;;;;;;;1.70;1.70;;;;;;;28.75;57.50;96957.22;5063401;28;20451;-58
2023/08/16 07:36:21;;;;;;;1.73;1.73;;;;;;;28.78;55.36;96874.34;5063984;28;20067;-60
2023/08/16 07:38:48;;;;;;;1.70;1.70;;;;;;;29.44;54.47;96934.47;5067093;28;20090;-61
2023/08/16 07:41:15;;;;;;;1.80;1.80;;;;;;;29.32;53.04;96904.19;5065964;28;20048;-61
2023/08/16 07:43:42;;;;;;;1.77;1.77;;;;;;;29.66;54.03;96923.34;5061987;28;20706;-56
2023/08/16 07:46:08;;;;;;;1.80;1.80;;;;;;;30.30;51.65;96949.63;5072064;28;20051;-61
2023/08/16 07:48:35;;;;;;;1.80;1.80;;;;;;;30.10;51.67;96946.75;5061213;28;20156;-58
2023/08/16 07:51:02;;;;;;;1.75;1.75;;;;;;;30.19;51.10;96920.84;5060889;28;20131;-60
2023/08/16 07:53:29;;;;;;;1.75;1.75;;;;;;;30.68;50.01;96951.28;5061582;28;20048;-59
2023/08/16 07:55:56;;;;;;;1.88;1.88;;;;;;;30.43;49.68;96883.47;5061437;28;20502;-63
2023/08/16 07:58:23;;;;;;;1.70;1.70;;;;;;;30.87;49.27;96953.28;5060767;28;20503;-59
2023/08/16 08:00:53;;;;;;;1.80;1.80;;;;;;;29.50;50.23;96864.72;5061880;28;20527;-64
2023/08/16 08:03:21;;;;;;;1.80;1.80;;;;;;;29.72;52.14;96940.59;5060799;28;20056;-59
2023/08/16 08:05:48;;;;;;;1.88;1.88;;;;;;;29.94;51.87;96944.47;5062671;28;20080;-60
2023/08/16 08:08:14;;;;;;;1.60;1.60;;;;;;;29.78;51.68;96901.44;5062445;28;20051;-65
2023/08/16 08:10:45;;;;;;;1.95;1.95;;;;;;;30.22;50.84;96951.34;5059916;28;20502;-65
2023/08/16 08:13:11;;;;;;;1.77;1.77;;;;;;;30.15;50.88;96917.44;5060895;28;20549;-59
2023/08/16 08:15:38;;;;;;;1.63;1.63;;;;;;;30.61;50.99;96951.72;5062668;28;20051;-61
2023/08/16 08:18:05;;;;;;;1.70;1.70;;;;;;;30.39;50.82;96903.69;5062670;28;20140;-66
2023/08/16 08:20:32;;;;;;;1.73;1.73;;;;;;;30.75;50.11;96940.16;5060530;28;20458;-60
2023/08/16 08:22:58;;;;;;;1.80;1.80;;;;;;;30.79;50.60;96952.16;5061649;28;20051;-61
2023/08/16 08:25:25;;;;;;;1.77;1.77;;;;;;;30.74;50.08;96924.28;5061311;28;20050;-61
2023/08/16 08:27:52;;;;;;;1.75;1.75;;;;;;;31.08;49.85;96964.66;5060704;28;20151;-60
2023/08/16 08:30:19;;;;;;;1.58;1.58;;;;;;;31.24;49.53;96946.78;5060774;28;20123;-66
2023/08/16 08:32:45;;;;;;;1.80;1.80;;;;;;;31.32;48.79;96963.03;5061728;28;20084;-64
2023/08/16 08:35:12;;;;;;;1.70;1.70;;;;;;;31.02;49.88;96964.59;5059536;28;20639;-60
2023/08/16 08:37:39;;;;;;;1.80;1.80;;;;;;;30.39;50.18;96912.28;5059978;28;20056;-65
2023/08/16 08:40:06;;;;;;;1.70;1.70;;;;;;;30.80;50.55;96959.47;5061403;28;20040;-65
2023/08/16 08:42:33;;;;;;;1.63;1.63;;;;;;;30.73;49.89;96947.69;5061550;28;20059;-64
2023/08/16 08:45:01;;;;;;;1.50;1.50;;;;;;;30.53;51.20;96942.03;5061362;28;20048;-60
2023/08/16 08:47:29;;;;;;;1.90;1.90;;;;;;;30.83;50.28;96952.75;5060726;28;20190;-65
2023/08/16 08:49:57;;;;;;;1.80;1.80;;;;;;;31.14;49.20;96959.75;5061388;28;20475;-59
2023/08/16 08:52:25;;;;;;;1.60;1.60;;;;;;;31.06;50.21;96958.66;5060928;28;20056;-60
2023/08/16 08:54:52;;;;;;;1.70;1.70;;;;;;;30.88;49.33;96925.47;5060374;28;20044;-65
2023/08/16 08:57:20;;;;;;;1.55;1.55;;;;;;;30.86;49.56;96953.78;5053527;28;20467;-65
2023/08/16 08:59:49;;;;;;;1.80;1.80;;;;;;;30.86;50.54;96951.72;5058976;28;20079;-59
2023/08/16 09:02:20;;;;;;;1.77;1.77;;;;;;;29.76;51.78;96907.66;5058901;28;20553;-64
2023/08/16 09:04:50;;;;;;;1.85;1.85;;;;;;;29.83;52.75;96978.63;5057312;28;20188;-65
2023/08/16 09:07:19;;;;;;;1.58;1.58;;;;;;;29.46;53.03;96903.34;5059186;28;20431;-64
2023/08/16 09:09:48;;;;;;;1.77;1.77;;;;;;;30.26;52.52;96943.31;5060168;28;20706;-65
2023/08/16 09:12:15;;;;;;;1.63;1.63;;;;;;;30.23;51.31;96889.22;5059945;28;20113;-63
2023/08/16 09:14:41;;;;;;;1.60;1.60;;;;;;;29.61;53.09;96886.91;5043794;28;20055;-65
2023/08/16 09:17:08;;;;;;;1.60;1.60;;;;;;;29.33;54.79;96940.00;5059552;28;20037;-59
2023/08/16 09:19:43;;;;;;;1.80;1.80;;;;;;;29.15;55.37;96915.38;5059299;28;20581;-60
2023/08/16 09:22:12;;;;;;;1.42;1.42;;;;;;;29.03;55.53;96921.38;5058587;28;20040;-64
2023/08/16 09:24:43;;;;;;;1.85;1.85;;;;;;;29.49;55.41;96942.31;5059332;28;20048;-65
2023/08/16 09:27:10;;;;;;;1.73;1.73;;;;;;;29.88;54.37;96939.97;5057496;28;20606;-65
2023/08/16 09:29:39;;;;;;;1.58;1.58;;;;;;;29.68;55.19;96937.94;5057644;28;20555;-59
2023/08/16 09:32:08;;;;;;;1.73;1.73;;;;;;;29.19;55.79;96920.88;5059298;28;20460;-60
2023/08/16 09:34:42;;;;;;;1.70;1.70;;;;;;;29.12;57.10;96935.53;5060179;28;20475;-60
2023/08/16 09:37:21;;;;;;;1.45;1.45;;;;;;;29.28;56.67;96940.72;5060006;28;20040;-60
2023/08/16 09:39:59;;;;;;;1.60;1.60;;;;;;;28.85;57.69;96939.50;5058661;28;20503;-59
2023/08/16 09:42:33;;;;;;;1.80;1.80;;;;;;;29.44;55.42;96940.16;5060030;28;20534;-61
2023/08/16 09:45:01;;;;;;;1.60;1.60;;;;;;;29.82;55.05;96941.97;5060012;28;20095;-65
2023/08/16 09:47:31;;;;;;;1.50;1.50;;;;;;;30.05;54.55;96950.31;5059949;28;20197;-64
2023/08/16 09:50:05;;;;;;;1.95;1.95;;;;;;;30.11;53.42;96901.81;5058656;28;20472;-64
2023/08/16 09:52:34;;;;;;;1.77;1.77;;;;;;;30.57;52.67;96922.56;5058933;28;20060;-60
2023/08/16 09:55:02;;;;;;;1.70;1.70;;;;;;;31.03;51.51;96913.88;5049428;28;20064;-60
2023/08/16 09:57:30;;;;;;;1.52;1.52;;;;;;;31.75;49.94;96929.41;5041090;28;20084;-61
2023/08/16 09:59:57;;;;;;;1.90;1.90;;;;;;;32.01;49.69;96941.56;5020240;28;20604;-65
2023/08/16 10:02:24;;;;;;;1.73;1.73;;;;;;;31.88;49.64;96895.38;5020437;28;20064;-66
2023/08/16 10:04:55;;;;;;;1.90;1.90;;;;;;;31.33;49.75;96889.38;5051243;28;20049;-66
2023/08/16 10:07:26;;;;;;;1.90;1.90;;;;;;;32.25;49.35;96939.78;5018474;28;20053;-66
2023/08/16 10:09:53;;;;;;;2.03;2.03;;;;;;;32.16;48.86;96924.91;4999660;28;20497;-65
2023/08/16 10:12:20;;;;;;;1.88;1.88;;;;;;;32.48;48.67;96934.13;5019322;28;20156;-64
2023/08/16 10:14:47;;;;;;;1.60;1.60;;;;;;;32.70;47.49;96923.47;5004179;28;20488;-65
2023/08/16 10:17:18;;;;;;;1.83;1.83;;;;;;;32.33;48.17;96951.53;5018332;28;20582;-61
2023/08/16 10:19:47;;;;;;;1.63;1.63;;;;;;;32.79;47.43;96928.94;5019693;28;20037;-66
2023/08/16 10:22:29;;;;;;;1.75;1.75;;;;;;;33.35;46.52;96947.75;5015011;28;20076;-59
2023/08/16 10:25:17;;;;;;;1.70;1.70;;;;;;;31.97;48.69;96946.72;5001570;28;20048;-60
2023/08/16 10:27:45;;;;;;;1.95;1.95;;;;;;;32.66;48.31;96945.88;4992961;28;20091;-63
2023/08/16 10:30:25;;;;;;;1.90;1.90;;;;;;;32.69;47.89;96941.97;5000830;28;20060;-66
2023/08/16 10:32:59;;;;;;;1.67;1.67;;;;;;;32.71;47.67;96941.44;4997560;28;20053;-64
2023/08/16 10:35:27;;;;;;;1.90;1.90;;;;;;;32.51;47.77;96939.63;5012363;28;20445;-59
2023/08/16 10:37:56;;;;;;;1.90;1.90;;;;;;;32.78;47.88;96924.50;5010009;28;20046;-65
2023/08/16 10:40:24;;;;;;;1.88;1.88;;;;;;;32.34;48.76;96924.44;5012401;28;20050;-64
2023/08/16 10:42:53;;;;;;;1.90;1.90;;;;;;;32.01;48.99;96935.81;5020420;28;20116;-59
2023/08/16 10:45:23;;;;;;;1.90;1.90;;;;;;;32.52;48.59;96926.81;5011739;28;20089;-63
2023/08/16 10:47:50;;;;;;;1.77;1.77;;;;;;;32.32;48.32;96932.75;5017326;28;20904;-57
2023/08/16 10:50:17;;;;;;;1.95;1.95;;;;;;;31.55;50.24;96932.44;4996190;28;20050;-59
2023/08/16 10:52:44;;;;;;;1.67;1.67;;;;;;;32.17;49.33;96915.00;4993184;28;20057;-58
2023/08/16 10:55:14;;;;;;;1.98;1.98;;;;;;;32.44;48.26;96928.63;5028922;28;20054;-59
2023/08/16 10:57:52;;;;;;;2.03;2.03;;;;;;;32.25;48.71;96930.38;5005402;28;20053;-61
2023/08/16 11:00:19;;;;;;;1.70;1.70;;;;;;;32.11;48.53;96894.13;5022952;28;20414;-59
2023/08/16 11:02:49;;;;;;;1.70;1.70;;;;;;;31.41;48.99;96824.59;5023057;28;20067;-60
2023/08/16 11:05:20;;;;;;;1.60;1.60;;;;;;;30.93;51.08;96894.03;5012516;28;20053;-63
2023/08/16 11:07:47;;;;;;;1.83;1.83;;;;;;;31.16;51.33;96928.53;4985107;28;20126;-63
2023/08/16 11:10:13;;;;;;;1.75;1.75;;;;;;;30.86;51.03;96879.41;5032902;28;20045;-65
2023/08/16 11:12:40;;;;;;;1.80;1.80;;;;;;;31.13;51.57;96929.53;5000729;28;20061;-67
2023/08/16 11:15:08;;;;;;;1.70;1.70;;;;;;;30.70;51.48;96835.06;5008495;28;20056;-59
2023/08/16 11:17:36;;;;;;;1.92;1.92;;;;;;;31.06;51.00;96872.78;5004719;28;20052;-63
2023/08/16 11:20:07;;;;;;;1.80;1.80;;;;;;;32.25;49.48;96911.13;5009217;28;20081;-60
2023/08/16 11:22:34;;;;;;;1.58;1.58;;;;;;;32.32;49.04;96893.41;4992803;28;20057;-59
2023/08/16 11:25:01;;;;;;;1.52;1.52;;;;;;;32.58;48.44;96898.91;4995612;28;20079;-64
2023/08/16 11:27:28;;;;;;;1.67;1.67;;;;;;;32.65;47.98;96891.88;5023605;28;20089;-58
2023/08/16 11:29:55;;;;;;;1.70;1.70;;;;;;;32.89;47.36;96887.22;5016398;28;20042;-59
2023/08/16 11:32:37;;;;;;;1.90;1.90;;;;;;;32.88;47.77;96885.66;5002322;28;20495;-60
2023/08/16 11:35:08;;;;;;;1.73;1.73;;;;;;;32.41;48.82;96895.25;5022697;28;20156;-63
2023/08/16 11:37:36;;;;;;;1.85;1.85;;;;;;;32.57;48.37;96894.50;5013175;28;20046;-59
2023/08/16 11:40:10;;;;;;;1.77;1.77;;;;;;;32.21;48.86;96904.84;5010832;28;20049;-59